createdAt,value
2022-08-25T00:01:56.973Z,95239.56
2022-08-25T00:04:25.454Z,95243.56
2022-08-25T00:06:53.545Z,95245.28
2022-08-25T00:09:23.106Z,95248.91
2022-08-25T00:11:50.606Z,95245.28
2022-08-25T00:14:24.213Z,95244.09
2022-08-25T00:16:51.516Z,95243.00
2022-08-25T00:19:24.081Z,95238.16
2022-08-25T00:21:51.658Z,95237.34
2022-08-25T00:24:21.257Z,95238.03
2022-08-25T00:26:50.734Z,95233.84
2022-08-25T00:29:17.996Z,95233.19
2022-08-25T00:31:45.604Z,95234.97
2022-08-25T00:34:23.935Z,95231.38
2022-08-25T00:36:51.907Z,95234.22
2022-08-25T00:39:21.130Z,95234.78
2022-08-25T00:41:49.947Z,95230.09
2022-08-25T00:44:20.482Z,95239.38
2022-08-25T00:46:50.571Z,95233.22
2022-08-25T00:49:24.785Z,95232.16
2022-08-25T00:52:04.082Z,95223.38
2022-08-25T00:54:37.036Z,95223.72
2022-08-25T00:57:06.776Z,95220.47
2022-08-25T00:59:34.506Z,95216.31
2022-08-25T01:02:02.487Z,95222.53
2022-08-25T01:04:29.676Z,95210.50
2022-08-25T01:06:58.182Z,95210.19
2022-08-25T01:09:25.007Z,95209.19
2022-08-25T01:11:52.868Z,95219.00
2022-08-25T01:14:21.569Z,95212.31
2022-08-25T01:16:51.056Z,95218.47
2022-08-25T01:19:21.202Z,95215.91
2022-08-25T01:21:53.019Z,95215.25
2022-08-25T01:24:29.156Z,95214.97
2022-08-25T01:26:55.798Z,95216.59
2022-08-25T01:29:22.926Z,95217.56
2022-08-25T01:31:57.673Z,95213.66
2022-08-25T01:34:26.982Z,95210.13
2022-08-25T01:36:54.975Z,95210.94
2022-08-25T01:39:22.163Z,95217.44
2022-08-25T01:41:48.692Z,95210.16
2022-08-25T01:44:18.486Z,95208.56
2022-08-25T01:46:45.205Z,95205.19
2022-08-25T01:49:12.426Z,95207.63
2022-08-25T01:51:44.544Z,95214.75
2022-08-25T01:54:11.193Z,95209.09
2022-08-25T01:56:39.034Z,95211.50
2022-08-25T01:59:05.746Z,95200.78
2022-08-25T02:01:32.519Z,95206.97
2022-08-25T02:03:59.769Z,95206.63
2022-08-25T02:06:30.014Z,95200.31
2022-08-25T02:09:05.116Z,95202.56
2022-08-25T02:11:32.874Z,95198.84
2022-08-25T02:13:59.874Z,95201.13
2022-08-25T02:16:31.078Z,95205.50
2022-08-25T02:18:59.293Z,95199.03
2022-08-25T02:21:26.791Z,95200.50
2022-08-25T02:23:53.852Z,95197.91
2022-08-25T02:26:20.793Z,95199.38
2022-08-25T02:28:49.694Z,95195.47
2022-08-25T02:31:18.088Z,95198.38
2022-08-25T02:33:45.420Z,95181.38
2022-08-25T02:36:15.357Z,95185.22
2022-08-25T02:38:42.568Z,95179.09
2022-08-25T02:41:18.302Z,95183.13
2022-08-25T02:43:46.744Z,95175.66
2022-08-25T02:46:13.451Z,95182.31
2022-08-25T02:48:41.493Z,95182.13
2022-08-25T02:51:10.208Z,95185.19
2022-08-25T02:53:39.905Z,95179.53
2022-08-25T02:56:11.867Z,95183.56
2022-08-25T02:58:40.617Z,95183.91
2022-08-25T03:01:11.862Z,95187.63
2022-08-25T03:03:44.252Z,95181.97
2022-08-25T03:06:13.137Z,95187.81
2022-08-25T03:08:42.137Z,95181.66
2022-08-25T03:11:09.409Z,95189.91
2022-08-25T03:13:37.086Z,95185.56
2022-08-25T03:16:11.175Z,95184.75
2022-08-25T03:18:40.584Z,95188.31
2022-08-25T03:21:08.244Z,95184.75
2022-08-25T03:23:35.539Z,95181.81
2022-08-25T03:26:20.787Z,95183.97
2022-08-25T03:28:47.486Z,95182.97
2022-08-25T03:31:14.387Z,95184.28
2022-08-25T03:33:41.212Z,95180.91
2022-08-25T03:36:09.108Z,95182.34
2022-08-25T03:38:38.266Z,95184.94
2022-08-25T03:41:20.424Z,95179.94
2022-08-25T03:43:47.708Z,95173.28
2022-08-25T03:46:29.357Z,95174.09
2022-08-25T03:48:57.085Z,95179.13
2022-08-25T03:51:31.261Z,95174.44
2022-08-25T03:53:59.004Z,95177.81
2022-08-25T03:56:27.345Z,95181.56
2022-08-25T03:58:54.837Z,95183.97
2022-08-25T04:01:22.723Z,95179.94
2022-08-25T04:03:50.193Z,95176.38
2022-08-25T04:06:18.629Z,95179.44
2022-08-25T04:08:45.550Z,95178.50
2022-08-25T04:11:15.711Z,95175.44
2022-08-25T04:13:42.421Z,95179.66
2022-08-25T04:16:16.386Z,95168.59
2022-08-25T04:18:44.083Z,95165.19
2022-08-25T04:21:11.986Z,95174.25
2022-08-25T04:23:40.706Z,95175.22
2022-08-25T04:26:17.363Z,95173.44
2022-08-25T04:28:44.018Z,95169.38
2022-08-25T04:31:12.310Z,95174.25
2022-08-25T04:33:39.279Z,95171.03
2022-08-25T04:36:12.259Z,95176.06
2022-08-25T04:38:41.253Z,95176.53
2022-08-25T04:41:10.211Z,95180.91
2022-08-25T04:43:38.721Z,95178.50
2022-08-25T04:46:12.478Z,95169.06
2022-08-25T04:48:40.263Z,95172.47
2022-08-25T04:51:10.136Z,95168.63
2022-08-25T04:53:37.985Z,95176.06
2022-08-25T04:56:14.608Z,95167.81
2022-08-25T04:58:41.853Z,95169.59
2022-08-25T05:01:11.789Z,95167.81
2022-08-25T05:03:38.833Z,95173.13
2022-08-25T05:06:06.332Z,95178.16
2022-08-25T05:08:33.856Z,95174.44
2022-08-25T05:11:14.334Z,95168.25
2022-08-25T05:13:41.591Z,95172.63
2022-08-25T05:16:09.944Z,95173.72
2022-08-25T05:18:38.678Z,95166.56
2022-08-25T05:21:12.172Z,95169.94
2022-08-25T05:23:40.294Z,95164.88
2022-08-25T05:26:17.717Z,95161.72
2022-08-25T05:28:48.766Z,95168.81
2022-08-25T05:31:15.743Z,95173.94
2022-08-25T05:33:42.682Z,95171.75
2022-08-25T05:36:11.160Z,95181.44
2022-08-25T05:38:39.739Z,95167.84
2022-08-25T05:41:16.514Z,95175.69
2022-08-25T05:43:44.881Z,95170.09
2022-08-25T05:46:18.774Z,95172.44
2022-08-25T05:48:46.169Z,95175.97
2022-08-25T05:51:15.329Z,95179.31
2022-08-25T05:53:44.831Z,95183.59
2022-08-25T05:56:14.022Z,95170.25
2022-08-25T05:58:42.020Z,95165.22
2022-08-25T06:01:28.980Z,95163.97
2022-08-25T06:03:55.706Z,95168.75
2022-08-25T06:06:24.422Z,95160.38
2022-08-25T06:08:51.839Z,95156.28
2022-08-25T06:11:19.341Z,95155.56
2022-08-25T06:13:46.611Z,95155.53
2022-08-25T06:16:13.832Z,95153.84
2022-08-25T06:18:40.851Z,95153.06
2022-08-25T06:21:10.247Z,95153.72
2022-08-25T06:23:38.521Z,95158.00
2022-08-25T06:26:05.495Z,95162.78
2022-08-25T06:28:32.163Z,95165.50
2022-08-25T06:31:00.872Z,95159.75
2022-08-25T06:33:27.990Z,95162.38
2022-08-25T06:35:56.447Z,95159.00
2022-08-25T06:38:24.483Z,95162.69
2022-08-25T06:40:57.817Z,95162.81
2022-08-25T06:43:24.644Z,95155.44
2022-08-25T06:45:53.844Z,95152.75
2022-08-25T06:48:20.515Z,95150.09
2022-08-25T06:50:47.262Z,95150.56
2022-08-25T06:53:15.149Z,95150.13
2022-08-25T06:55:42.695Z,95145.50
2022-08-25T06:58:10.262Z,95153.44
2022-08-25T07:00:38.289Z,95152.50
2022-08-25T07:03:05.266Z,95145.63
2022-08-25T07:05:42.783Z,95149.50
2022-08-25T07:08:11.987Z,95157.78
2022-08-25T07:10:39.033Z,95148.94
2022-08-25T07:13:06.002Z,95148.94
2022-08-25T07:15:32.728Z,95147.34
2022-08-25T07:17:59.785Z,95144.91
2022-08-25T07:22:53.038Z,95140.09
2022-08-25T07:25:19.746Z,95139.47
2022-08-25T07:27:46.698Z,95139.97
2022-08-25T07:30:14.110Z,95135.16
2022-08-25T07:32:42.259Z,95137.38
2022-08-25T07:35:15.989Z,95139.28
2022-08-25T07:37:58.118Z,95141.72
2022-08-25T07:40:34.311Z,95138.34
2022-08-25T07:43:04.111Z,95138.63
2022-08-25T07:45:34.299Z,95134.66
2022-08-25T07:48:09.853Z,95134.75
2022-08-25T07:50:39.190Z,95139.81
2022-08-25T07:53:06.080Z,95133.50
2022-08-25T07:55:36.482Z,95146.91
2022-08-25T07:58:06.014Z,95142.97
2022-08-25T08:00:37.074Z,95147.47
2022-08-25T08:03:05.602Z,95140.69
2022-08-25T08:05:36.661Z,95138.69
2022-08-25T08:08:03.939Z,95135.69
2022-08-25T08:10:54.245Z,95131.59
2022-08-25T08:13:18.803Z,95135.56
2022-08-25T08:15:46.414Z,95139.19
2022-08-25T08:18:13.558Z,95140.75
2022-08-25T08:20:44.393Z,95136.06
2022-08-25T08:23:12.312Z,95135.03
2022-08-25T08:25:38.991Z,95136.81
2022-08-25T08:28:05.819Z,95139.22
2022-08-25T08:30:36.526Z,95137.00
2022-08-25T08:33:10.197Z,95134.41
2022-08-25T08:35:38.890Z,95134.00
2022-08-25T08:38:13.558Z,95132.09
2022-08-25T08:41:22.954Z,95131.13
2022-08-25T08:43:55.744Z,95121.50
2022-08-25T08:46:23.159Z,95119.59
2022-08-25T08:49:06.216Z,95121.03
2022-08-25T08:51:42.285Z,95118.06
2022-08-25T08:54:23.045Z,95120.47
2022-08-25T08:56:56.174Z,95115.75
2022-08-25T08:59:30.014Z,95118.16
2022-08-25T09:02:03.051Z,95113.94
2022-08-25T09:04:39.702Z,95118.38
2022-08-25T09:07:13.051Z,95114.03
2022-08-25T09:09:42.984Z,95119.00
2022-08-25T09:12:23.679Z,95116.22
2022-08-25T09:15:18.354Z,95114.09
2022-08-25T09:18:41.077Z,95111.94
2022-08-25T09:21:43.417Z,95111.94
2022-08-25T09:24:20.425Z,95111.16
2022-08-25T09:27:10.796Z,95102.41
2022-08-25T09:30:05.331Z,95102.91
2022-08-25T09:32:48.667Z,95098.38
2022-08-25T09:35:28.833Z,95104.47
2022-08-25T09:38:02.990Z,95098.16
2022-08-25T09:40:32.158Z,95095.22
2022-08-25T09:43:02.039Z,95097.56
2022-08-25T09:45:35.051Z,95095.22
2022-08-25T09:48:02.768Z,95087.34
2022-08-25T09:50:34.762Z,95089.34
2022-08-25T09:53:17.337Z,95083.50
2022-08-25T09:55:52.293Z,95078.25
2022-08-25T09:58:29.549Z,95073.13
2022-08-25T10:01:14.628Z,95073.34
2022-08-25T10:04:00.715Z,95059.63
2022-08-25T10:06:34.184Z,95065.63
2022-08-25T10:09:08.318Z,95058.22
2022-08-25T10:11:37.973Z,95046.47
2022-08-25T10:14:08.443Z,95053.38
2022-08-25T10:16:36.432Z,95057.19
2022-08-25T10:19:23.445Z,95059.69
2022-08-25T10:22:10.819Z,95060.28
2022-08-25T10:24:41.085Z,95059.31
2022-08-25T10:27:31.163Z,95060.91
2022-08-25T10:30:19.241Z,95056.28
2022-08-25T10:33:20.351Z,95048.25
2022-08-25T10:36:23.542Z,95050.72
2022-08-25T10:39:01.966Z,95047.88
2022-08-25T10:42:10.174Z,95045.78
2022-08-25T10:45:23.720Z,95039.38
2022-08-25T10:48:04.616Z,95045.22
2022-08-25T10:50:41.035Z,95040.28
2022-08-25T10:53:36.744Z,95035.69
2022-08-25T10:56:25.136Z,95036.25
2022-08-25T10:59:01.520Z,95034.66
2022-08-25T11:01:38.890Z,95035.28
2022-08-25T11:04:15.951Z,95031.41
2022-08-25T11:06:52.733Z,95029.00
2022-08-25T11:09:39.064Z,95021.03
2022-08-25T11:12:18.256Z,95022.16
2022-08-25T11:14:48.218Z,95020.38
2022-08-25T11:17:20.900Z,95012.00
2022-08-25T11:19:52.150Z,95006.69
2022-08-25T11:22:45.987Z,95006.53
2022-08-25T11:25:36.748Z,95007.59
2022-08-25T11:28:12.884Z,95006.25
2022-08-25T11:30:40.447Z,95006.34
2022-08-25T11:33:12.104Z,95010.28
2022-08-25T11:35:43.654Z,95012.69
2022-08-25T11:38:29.400Z,95004.28
2022-08-25T11:41:22.864Z,94999.75
2022-08-25T11:43:52.942Z,95000.09
2022-08-25T11:46:35.007Z,95003.59
2022-08-25T11:49:30.604Z,95008.56
2022-08-25T11:52:02.913Z,95001.09
2022-08-25T11:54:43.744Z,95008.25
2022-08-25T11:57:22.230Z,95003.69
2022-08-25T11:59:59.575Z,94999.94
2022-08-25T12:02:47.666Z,94993.31
2022-08-25T12:05:17.498Z,94992.88
2022-08-25T12:07:47.392Z,94994.31
2022-08-25T12:10:22.594Z,94994.31
2022-08-25T12:13:04.799Z,94994.56
2022-08-25T12:15:56.421Z,95000.44
2022-08-25T12:18:26.922Z,94997.22
2022-08-25T12:20:53.952Z,94996.16
2022-08-25T12:23:38.244Z,94998.56
2022-08-25T12:26:29.487Z,94992.34
2022-08-25T12:29:16.901Z,94993.06
2022-08-25T12:32:04.669Z,94991.63
2022-08-25T12:34:40.171Z,94988.72
2022-08-25T12:37:21.371Z,94983.56
2022-08-25T12:39:51.485Z,94989.94
2022-08-25T12:42:31.719Z,94983.09
2022-08-25T12:45:14.180Z,94990.91
2022-08-25T12:47:44.971Z,94984.78
2022-08-25T12:50:39.092Z,94980.03
2022-08-25T12:53:18.126Z,94989.19
2022-08-25T12:55:50.379Z,94976.50
2022-08-25T12:58:18.056Z,94970.13
2022-08-25T13:00:57.988Z,94974.16
2022-08-25T13:03:47.404Z,94975.41
2022-08-25T13:06:33.040Z,94973.88
2022-08-25T13:09:25.185Z,94973.31
2022-08-25T13:12:31.701Z,94974.00
2022-08-25T13:15:01.472Z,94970.72
2022-08-25T13:17:35.036Z,94971.38
2022-08-25T13:20:17.330Z,94967.66
2022-08-25T13:22:47.483Z,94964.19
2022-08-25T13:25:23.033Z,94957.78
2022-08-25T13:28:05.800Z,94966.09
2022-08-25T13:30:37.258Z,94960.78
2022-08-25T13:33:24.135Z,94958.69
2022-08-25T13:36:15.393Z,94963.94
2022-08-25T13:38:46.573Z,94963.13
2022-08-25T13:41:28.954Z,94958.31
2022-08-25T13:44:00.767Z,94957.41
2022-08-25T13:46:28.780Z,94952.28
2022-08-25T13:49:07.060Z,94954.94
2022-08-25T13:51:36.758Z,94942.47
2022-08-25T13:54:07.245Z,94950.78
2022-08-25T13:56:41.897Z,94946.53
2022-08-25T13:59:40.096Z,94943.19
2022-08-25T14:02:09.100Z,94942.47
2022-08-25T14:04:51.056Z,94941.75
2022-08-25T14:07:22.719Z,94938.59
2022-08-25T14:10:00.760Z,94938.91
2022-08-25T14:12:46.648Z,94940.44
2022-08-25T14:15:32.000Z,94940.78
2022-08-25T14:18:06.307Z,94946.91
2022-08-25T14:20:35.218Z,94932.31
2022-08-25T14:23:09.896Z,94935.41
2022-08-25T14:25:40.746Z,94948.13
2022-08-25T14:28:15.416Z,94940.03
2022-08-25T14:30:52.957Z,94935.09
2022-08-25T14:33:24.595Z,94935.81
2022-08-25T14:35:54.428Z,94934.56
2022-08-25T14:38:22.718Z,94936.66
2022-08-25T14:40:51.360Z,94929.09
2022-08-25T14:43:20.918Z,94934.00
2022-08-25T14:45:51.871Z,94925.28
2022-08-25T14:48:29.668Z,94928.38
2022-08-25T14:50:59.639Z,94925.94
2022-08-25T14:53:27.549Z,94919.28
2022-08-25T14:55:59.056Z,94912.84
2022-08-25T14:58:27.097Z,94913.09
2022-08-25T15:00:54.949Z,94911.84
2022-08-25T15:03:30.040Z,94915.78
2022-08-25T15:06:01.035Z,94908.50
2022-08-25T15:08:47.561Z,94912.38
2022-08-25T15:11:15.065Z,94912.59
2022-08-25T15:13:43.840Z,94908.03
2022-08-25T15:16:23.295Z,94908.84
2022-08-25T15:18:50.664Z,94903.25
2022-08-25T15:21:19.135Z,94906.66
2022-08-25T15:23:46.228Z,94897.78
2022-08-25T15:26:14.114Z,94902.97
2022-08-25T15:28:45.452Z,94902.38
2022-08-25T15:31:12.731Z,94902.50
2022-08-25T15:33:39.899Z,94894.38
2022-08-25T15:36:15.299Z,94892.97
2022-08-25T15:38:46.707Z,94891.75
2022-08-25T15:41:13.771Z,94888.56
2022-08-25T15:43:43.294Z,94890.63
2022-08-25T15:46:14.569Z,94891.53
2022-08-25T15:48:42.405Z,94891.31
2022-08-25T15:51:10.096Z,94879.28
2022-08-25T15:53:36.847Z,94887.59
2022-08-25T15:56:06.901Z,94881.22
2022-08-25T15:58:35.377Z,94881.94
2022-08-25T16:01:03.253Z,94882.41
2022-08-25T16:03:31.747Z,94878.34
2022-08-25T16:05:58.565Z,94885.81
2022-08-25T16:08:25.426Z,94877.13
2022-08-25T16:10:52.697Z,94876.34
2022-08-25T16:13:19.408Z,94878.91
2022-08-25T16:15:53.075Z,94875.34
2022-08-25T16:18:23.391Z,94881.97
2022-08-25T16:20:51.825Z,94872.63
2022-08-25T16:23:21.339Z,94875.09
2022-08-25T16:25:48.765Z,94876.03
2022-08-25T16:28:17.522Z,94881.72
2022-08-25T16:30:52.655Z,94871.41
2022-08-25T16:33:20.343Z,94873.72
2022-08-25T16:35:49.331Z,94878.03
2022-08-25T16:38:16.160Z,94870.59
2022-08-25T16:40:43.475Z,94869.84
2022-08-25T16:43:11.708Z,94872.44
2022-08-25T16:45:38.753Z,94874.63
2022-08-25T16:48:07.595Z,94871.69
2022-08-25T16:50:35.607Z,94875.13
2022-08-25T16:53:23.980Z,94869.78
2022-08-25T16:56:00.964Z,94871.78
2022-08-25T16:58:28.008Z,94875.44
2022-08-25T17:01:07.124Z,94870.44
2022-08-25T17:03:37.064Z,94868.53
2022-08-25T17:06:05.909Z,94869.53
2022-08-25T17:08:36.186Z,94863.47
2022-08-25T17:11:15.003Z,94869.25
2022-08-25T17:13:49.647Z,94872.09
2022-08-25T17:16:17.873Z,94878.19
2022-08-25T17:18:47.770Z,94877.00
2022-08-25T17:21:24.633Z,94869.75
2022-08-25T17:23:53.192Z,94873.50
2022-08-25T17:26:20.344Z,94876.88
2022-08-25T17:28:54.880Z,94871.03
2022-08-25T17:31:23.485Z,94872.78
2022-08-25T17:33:52.347Z,94872.81
2022-08-25T17:36:19.416Z,94873.44
2022-08-25T17:38:46.675Z,94878.19
2022-08-25T17:41:15.269Z,94874.22
2022-08-25T17:43:43.640Z,94880.72
2022-08-25T17:46:12.504Z,94879.06
2022-08-25T17:48:43.821Z,94873.09
2022-08-25T17:51:11.444Z,94876.72
2022-08-25T17:53:38.988Z,94881.16
2022-08-25T17:56:14.018Z,94888.22
2022-08-25T17:58:42.550Z,94889.97
2022-08-25T18:01:19.446Z,94887.56
2022-08-25T18:03:49.478Z,94890.66
2022-08-25T18:06:16.664Z,94885.25
2022-08-25T18:08:44.343Z,94890.69
2022-08-25T18:11:12.032Z,94900.94
2022-08-25T18:13:39.586Z,94895.22
2022-08-25T18:16:08.846Z,94903.91
2022-08-25T18:18:37.152Z,94898.66
2022-08-25T18:21:04.354Z,94901.97
2022-08-25T18:23:33.905Z,94901.88
2022-08-25T18:26:01.327Z,94906.19
2022-08-25T18:28:29.719Z,94899.56
2022-08-25T18:30:57.045Z,94899.50
2022-08-25T18:33:24.092Z,94905.34
2022-08-25T18:35:50.781Z,94904.53
2022-08-25T18:38:36.424Z,94909.94
2022-08-25T18:41:06.671Z,94910.72
2022-08-25T18:43:35.178Z,94915.88
2022-08-25T18:46:06.936Z,94907.06
2022-08-25T18:48:35.277Z,94911.63
2022-08-25T18:51:02.298Z,94911.25
2022-08-25T18:53:49.556Z,94916.75
2022-08-25T18:56:18.183Z,94913.28
2022-08-25T18:58:46.656Z,94911.03
2022-08-25T19:01:15.880Z,94909.72
2022-08-25T19:03:44.320Z,94907.63
2022-08-25T19:06:11.504Z,94908.38
2022-08-25T19:08:41.876Z,94909.47
2022-08-25T19:11:09.800Z,94895.75
2022-08-25T19:13:37.429Z,94904.84
2022-08-25T19:16:30.279Z,94909.16
2022-08-25T19:18:57.471Z,94919.66
2022-08-25T19:21:25.206Z,94906.09
2022-08-25T19:23:53.860Z,94907.31
2022-08-25T19:26:21.386Z,94898.72
2022-08-25T19:28:49.457Z,94904.66
2022-08-25T19:31:18.683Z,94909.44
2022-08-25T19:33:47.884Z,94913.16
2022-08-25T19:36:17.566Z,94908.38
2022-08-25T19:38:44.498Z,94907.00
2022-08-25T19:41:14.543Z,94906.06
2022-08-25T19:43:55.226Z,94914.78
2022-08-25T19:46:33.409Z,94911.38
2022-08-25T19:49:12.768Z,94905.81
2022-08-25T19:51:44.146Z,94912.78
2022-08-25T19:54:13.776Z,94910.66
2022-08-25T19:56:53.703Z,94915.34
2022-08-25T19:59:40.649Z,94913.28
2022-08-25T20:02:12.652Z,94915.94
2022-08-25T20:04:49.912Z,94907.56
2022-08-25T20:07:19.302Z,94917.44
2022-08-25T20:09:46.363Z,94920.81
2022-08-25T20:14:40.334Z,94923.50
2022-08-25T20:17:14.586Z,94926.31
2022-08-25T20:19:57.216Z,94920.91
2022-08-25T20:22:26.949Z,94924.16
2022-08-25T20:24:59.103Z,94920.78
2022-08-25T20:27:33.324Z,94927.06
2022-08-25T20:30:02.556Z,94929.53
2022-08-25T20:32:31.418Z,94924.00
2022-08-25T20:34:58.226Z,94927.91
2022-08-25T20:37:25.900Z,94927.91
2022-08-25T20:39:53.018Z,94928.75
2022-08-25T20:42:20.073Z,94921.47
2022-08-25T20:44:47.179Z,94925.88
2022-08-25T20:47:14.957Z,94933.91
2022-08-25T20:49:44.860Z,94926.47
2022-08-25T20:52:12.007Z,94932.09
2022-08-25T20:54:40.351Z,94926.41
2022-08-25T20:57:08.142Z,94927.97
2022-08-25T20:59:35.299Z,94927.34
2022-08-25T21:02:02.290Z,94929.75
2022-08-25T21:04:31.169Z,94926.50
2022-08-25T21:07:00.322Z,94926.31
2022-08-25T21:09:28.119Z,94925.69
2022-08-25T21:11:56.681Z,94921.88
2022-08-25T21:14:24.903Z,94931.38
2022-08-25T21:16:53.850Z,94924.34
2022-08-25T21:19:26.893Z,94930.19
2022-08-25T21:21:59.764Z,94926.97
2022-08-25T21:24:28.430Z,94930.38
2022-08-25T21:26:59.712Z,94929.63
2022-08-25T21:29:28.470Z,94941.00
2022-08-25T21:31:58.565Z,94932.41
2022-08-25T21:34:26.044Z,94927.50
2022-08-25T21:36:57.982Z,94932.19
2022-08-25T21:39:28.068Z,94932.63
2022-08-25T21:41:56.804Z,94928.25
2022-08-25T21:44:23.634Z,94922.03
2022-08-25T21:46:54.254Z,94927.47
2022-08-25T21:49:22.594Z,94923.72
2022-08-25T21:51:59.289Z,94931.19
2022-08-25T21:54:26.792Z,94922.13
2022-08-25T21:56:59.620Z,94922.75
2022-08-25T21:59:32.445Z,94926.56
2022-08-25T22:02:03.234Z,94922.34
2022-08-25T22:04:31.078Z,94923.16
2022-08-25T22:06:58.196Z,94923.38
2022-08-25T22:09:28.151Z,94926.38
2022-08-25T22:11:56.028Z,94921.16
2022-08-25T22:14:24.273Z,94924.38
2022-08-25T22:16:54.154Z,94919.94
2022-08-25T22:19:21.540Z,94924.41
2022-08-25T22:21:50.981Z,94918.16
2022-08-25T22:24:18.143Z,94915.50
2022-08-25T22:26:47.415Z,94920.53
2022-08-25T22:29:14.706Z,94914.91
2022-08-25T22:31:52.867Z,94907.88
2022-08-25T22:34:19.911Z,94911.91
2022-08-25T22:36:59.491Z,94915.31
2022-08-25T22:39:27.511Z,94917.16
2022-08-25T22:41:54.310Z,94911.47
2022-08-25T22:44:23.326Z,94909.09
2022-08-25T22:46:50.165Z,94920.16
2022-08-25T22:49:18.503Z,94917.91
2022-08-25T22:51:46.950Z,94911.28
2022-08-25T22:54:15.167Z,94907.06
2022-08-25T22:56:42.387Z,94913.06
2022-08-25T22:59:12.610Z,94921.69
2022-08-25T23:01:39.828Z,94905.81
2022-08-25T23:04:08.002Z,94920.50
2022-08-25T23:06:35.265Z,94913.47
2022-08-25T23:09:03.521Z,94912.47
2022-08-25T23:11:30.408Z,94908.66
2022-08-25T23:14:05.586Z,94905.44
2022-08-25T23:16:33.059Z,94906.84
2022-08-25T23:19:00.325Z,94909.25
2022-08-25T23:21:45.395Z,94900.44
2022-08-25T23:24:13.996Z,94900.84
2022-08-25T23:26:54.098Z,94901.81
2022-08-25T23:29:21.088Z,94906.44
2022-08-25T23:31:48.178Z,94898.97
2022-08-25T23:34:16.496Z,94899.78
2022-08-25T23:36:43.916Z,94898.78
2022-08-25T23:39:11.436Z,94902.59
2022-08-25T23:41:38.453Z,94904.97
2022-08-25T23:44:11.450Z,94897.56
2022-08-25T23:46:39.416Z,94892.53
2022-08-25T23:49:09.366Z,94897.16
2022-08-25T23:51:40.990Z,94898.16
2022-08-25T23:54:10.876Z,94894.75
2022-08-25T23:56:44.842Z,94889.94
2022-08-25T23:59:19.965Z,94892.94
